Time;durP1;ratioP1;P1;durP2;ratioP2;P2;SDS_P1;SDS_P2;PMS_P1;PMS_P2;Temp;Humidity;BMP_temperature;BMP_pressure;BME280_temperature;BME280_humidity;BME280_pressure;Samples;Min_cycle;Max_cycle;Signal;HPM_P1;HPM_P2
2021/06/16 00:01:30;;;;;;;42.35;19.92;;;;;;;;;;5023418;28;20095;-65
2021/06/16 00:03:56;;;;;;;48.38;20.85;;;;;;;;;;5023235;28;21401;-65
2021/06/16 00:06:22;;;;;;;57.08;22.23;;;;;;;;;;5035146;28;20112;-67
2021/06/16 00:08:47;;;;;;;53.65;21.67;;;;;;;;;;5036858;28;20102;-66
2021/06/16 00:11:13;;;;;;;44.35;20.77;;;;;;;;;;5023720;28;20033;-65
2021/06/16 00:13:39;;;;;;;45.60;22.52;;;;;;;;;;5017267;28;20413;-66
2021/06/16 00:16:05;;;;;;;52.40;22.27;;;;;;;;;;5003138;28;20087;-66
2021/06/16 00:18:30;;;;;;;46.83;22.00;;;;;;;;;;5016599;28;20125;-66
2021/06/16 00:20:56;;;;;;;47.42;22.75;;;;;;;;;;5018873;28;20065;-66
2021/06/16 00:23:21;;;;;;;51.30;21.40;;;;;;;;;;5021795;28;20417;-67
2021/06/16 00:25:48;;;;;;;40.03;21.60;;;;;;;;;;5023964;28;20041;-67
2021/06/16 00:28:23;;;;;;;49.80;23.48;;;;;;;;;;5031721;28;20030;-66
2021/06/16 00:30:49;;;;;;;46.17;22.52;;;;;;;;;;5025280;28;20033;-66
2021/06/16 00:33:15;;;;;;;43.97;22.63;;;;;;;;;;5022582;28;20476;-67
2021/06/16 00:35:41;;;;;;;65.10;23.08;;;;;;;;;;5025769;28;20821;-67
2021/06/16 00:38:06;;;;;;;44.40;22.20;;;;;;;;;;5025183;28;20494;-66
2021/06/16 00:40:32;;;;;;;45.47;23.80;;;;;;;;;;5010972;28;20037;-66
2021/06/16 00:43:00;;;;;;;49.38;24.02;;;;;;;;;;5022808;28;20494;-67
2021/06/16 00:45:26;;;;;;;49.67;23.90;;;;;;;;;;5008612;28;20030;-66
2021/06/16 00:47:56;;;;;;;54.13;22.55;;;;;;;;;;4991862;28;20343;-65
2021/06/16 00:50:48;;;;;;;51.13;25.50;;;;;;;;;;5023126;28;20030;-66
2021/06/16 00:53:14;;;;;;;53.67;24.53;;;;;;;;;;4999695;28;20041;-67
2021/06/16 00:55:40;;;;;;;39.55;23.98;;;;;;;;;;5019775;28;20041;-69
2021/06/16 00:58:06;;;;;;;42.55;23.05;;;;;;;;;;5026088;28;20132;-67
2021/06/16 01:00:37;;;;;;;43.80;23.48;;;;;;;;;;5024015;28;20075;-67
2021/06/16 01:03:12;;;;;;;40.63;21.83;;;;;;;;;;4990678;28;20198;-68
2021/06/16 01:05:46;;;;;;;47.05;22.73;;;;;;;;;;5023172;28;20291;-68
2021/06/16 01:08:22;;;;;;;44.92;22.65;;;;;;;;;;5024094;28;20464;-68
2021/06/16 01:10:49;;;;;;;43.80;22.23;;;;;;;;;;5022313;28;20094;-67
2021/06/16 01:13:37;;;;;;;47.95;22.42;;;;;;;;;;5024229;28;20037;-69
2021/06/16 01:16:06;;;;;;;47.70;21.48;;;;;;;;;;5013019;28;20052;-68
2021/06/16 01:18:41;;;;;;;39.60;21.25;;;;;;;;;;5029789;28;20083;-72
2021/06/16 01:21:08;;;;;;;44.05;20.83;;;;;;;;;;5043810;28;20037;-67
2021/06/16 01:23:49;;;;;;;53.50;20.63;;;;;;;;;;5026328;28;20041;-66
2021/06/16 01:26:18;;;;;;;35.80;20.33;;;;;;;;;;5045731;28;20418;-66
2021/06/16 01:28:44;;;;;;;46.03;19.83;;;;;;;;;;5010921;28;20043;-65
2021/06/16 01:31:12;;;;;;;44.53;20.10;;;;;;;;;;5043378;28;20037;-66
2021/06/16 01:33:38;;;;;;;48.92;20.33;;;;;;;;;;5045379;28;20039;-66
2021/06/16 01:36:04;;;;;;;40.38;20.00;;;;;;;;;;5044360;28;20037;-67
2021/06/16 01:38:30;;;;;;;35.38;19.35;;;;;;;;;;5041907;28;20564;-66
2021/06/16 01:40:59;;;;;;;39.70;19.60;;;;;;;;;;5045020;28;20048;-66
2021/06/16 01:43:25;;;;;;;39.78;19.52;;;;;;;;;;5027176;28;20033;-66
2021/06/16 01:45:51;;;;;;;37.50;17.60;;;;;;;;;;5043890;28;20534;-65
2021/06/16 01:48:17;;;;;;;30.50;17.40;;;;;;;;;;5042561;28;20575;-65
2021/06/16 01:50:43;;;;;;;35.50;16.38;;;;;;;;;;5045072;28;20086;-65
2021/06/16 01:53:09;;;;;;;34.30;16.48;;;;;;;;;;5044544;28;20481;-65
2021/06/16 01:55:35;;;;;;;28.63;16.42;;;;;;;;;;5023379;28;20085;-65
2021/06/16 01:58:01;;;;;;;31.85;13.65;;;;;;;;;;5042936;28;20056;-66
2021/06/16 02:00:27;;;;;;;29.45;11.30;;;;;;;;;;5043682;28;20048;-67
2021/06/16 02:02:54;;;;;;;33.00;11.07;;;;;;;;;;5042444;28;20052;-67
2021/06/16 02:05:20;;;;;;;23.45;10.80;;;;;;;;;;5041589;28;20040;-66
2021/06/16 02:07:54;;;;;;;24.42;10.85;;;;;;;;;;5044639;28;20044;-66
2021/06/16 02:10:22;;;;;;;22.17;10.80;;;;;;;;;;5018222;28;20041;-64
2021/06/16 02:12:48;;;;;;;22.10;10.35;;;;;;;;;;5022481;28;20417;-64
2021/06/16 02:15:15;;;;;;;28.13;11.63;;;;;;;;;;5044438;28;20057;-66
2021/06/16 02:17:43;;;;;;;23.90;10.77;;;;;;;;;;5041827;28;20064;-66
2021/06/16 02:20:09;;;;;;;17.65;11.05;;;;;;;;;;5043601;28;20124;-64
2021/06/16 02:22:36;;;;;;;26.77;10.52;;;;;;;;;;5044188;28;20587;-64
2021/06/16 02:25:03;;;;;;;19.95;10.43;;;;;;;;;;5045627;28;20044;-65
2021/06/16 02:27:29;;;;;;;18.98;10.95;;;;;;;;;;5044856;28;20048;-70
2021/06/16 02:29:54;;;;;;;25.00;12.10;;;;;;;;;;5040787;28;20040;-66
2021/06/16 02:32:20;;;;;;;20.67;11.95;;;;;;;;;;5043140;28;20036;-65
2021/06/16 02:34:46;;;;;;;19.65;11.63;;;;;;;;;;5043677;28;20374;-66
2021/06/16 02:37:13;;;;;;;22.90;12.43;;;;;;;;;;5043789;28;20151;-66
2021/06/16 02:40:08;;;;;;;25.10;13.30;;;;;;;;;;5042083;28;20119;-67
2021/06/16 02:42:34;;;;;;;26.98;12.93;;;;;;;;;;4981243;28;20506;-64
2021/06/16 02:45:01;;;;;;;22.45;13.40;;;;;;;;;;4982909;28;20026;-64
2021/06/16 02:47:28;;;;;;;23.60;12.70;;;;;;;;;;4993267;28;20046;-66
2021/06/16 02:49:55;;;;;;;21.50;12.75;;;;;;;;;;4983482;28;20044;-65
2021/06/16 02:52:21;;;;;;;25.67;13.45;;;;;;;;;;4980386;28;20213;-68
2021/06/16 02:54:52;;;;;;;28.95;13.05;;;;;;;;;;4980802;28;20041;-65
2021/06/16 02:57:19;;;;;;;25.05;13.65;;;;;;;;;;4980945;28;20581;-67
2021/06/16 02:59:49;;;;;;;22.52;13.70;;;;;;;;;;4979137;28;20424;-71
2021/06/16 03:02:14;;;;;;;21.25;13.07;;;;;;;;;;4990925;28;20450;-71
2021/06/16 03:04:41;;;;;;;23.88;13.63;;;;;;;;;;4985038;28;20034;-65
2021/06/16 03:07:07;;;;;;;20.05;12.77;;;;;;;;;;4980922;28;20064;-65
2021/06/16 03:09:33;;;;;;;29.55;12.63;;;;;;;;;;4980899;28;20042;-66
2021/06/16 03:11:59;;;;;;;22.15;11.40;;;;;;;;;;4981883;28;20788;-66
2021/06/16 03:14:26;;;;;;;28.55;13.02;;;;;;;;;;4981895;28;20046;-68
2021/06/16 03:16:52;;;;;;;30.58;12.68;;;;;;;;;;4980973;28;20137;-67
2021/06/16 03:19:20;;;;;;;28.88;11.68;;;;;;;;;;4999279;28;20102;-67
2021/06/16 03:21:46;;;;;;;18.90;11.50;;;;;;;;;;5032494;28;20086;-68
2021/06/16 03:24:13;;;;;;;19.02;11.60;;;;;;;;;;5044207;28;20503;-66
2021/06/16 03:26:39;;;;;;;18.40;11.70;;;;;;;;;;5034444;28;20049;-65
2021/06/16 03:29:05;;;;;;;19.30;11.70;;;;;;;;;;5039786;28;20037;-67
2021/06/16 03:31:31;;;;;;;20.35;11.93;;;;;;;;;;5039256;28;20074;-67
2021/06/16 03:33:57;;;;;;;20.65;11.00;;;;;;;;;;5036430;28;20065;-67
2021/06/16 03:36:24;;;;;;;22.83;11.50;;;;;;;;;;5040165;28;20130;-68
2021/06/16 03:38:50;;;;;;;22.77;11.18;;;;;;;;;;5018690;28;20068;-67
2021/06/16 03:41:16;;;;;;;18.40;10.73;;;;;;;;;;5019567;28;20106;-68
2021/06/16 03:43:42;;;;;;;20.60;11.07;;;;;;;;;;5035767;28;20084;-66
2021/06/16 03:46:08;;;;;;;19.08;10.93;;;;;;;;;;5038960;28;20040;-66
2021/06/16 03:48:34;;;;;;;16.10;10.70;;;;;;;;;;5039320;28;20033;-73
2021/06/16 03:51:00;;;;;;;17.05;10.23;;;;;;;;;;5019143;28;20059;-65
2021/06/16 03:53:26;;;;;;;15.40;9.68;;;;;;;;;;5027683;28;20188;-67
2021/06/16 03:55:55;;;;;;;17.02;10.10;;;;;;;;;;5010752;28;20040;-66
2021/06/16 03:58:20;;;;;;;24.88;10.32;;;;;;;;;;5046100;28;20386;-66
2021/06/16 04:00:46;;;;;;;22.75;9.27;;;;;;;;;;5023592;28;20048;-69
2021/06/16 04:03:12;;;;;;;23.77;10.32;;;;;;;;;;5044202;28;20150;-67
2021/06/16 04:05:38;;;;;;;17.02;8.65;;;;;;;;;;5010883;28;20028;-67
2021/06/16 04:08:04;;;;;;;18.42;8.75;;;;;;;;;;5041748;28;20060;-65
2021/06/16 04:10:30;;;;;;;13.13;8.27;;;;;;;;;;5039196;28;20029;-67
2021/06/16 04:12:56;;;;;;;17.25;8.50;;;;;;;;;;5040990;28;20489;-66
2021/06/16 04:15:24;;;;;;;15.23;6.85;;;;;;;;;;5021367;28;20159;-65
2021/06/16 04:17:53;;;;;;;21.83;7.40;;;;;;;;;;5029750;28;20497;-69
2021/06/16 04:20:19;;;;;;;14.27;7.00;;;;;;;;;;5021845;28;20832;-73
2021/06/16 04:22:45;;;;;;;16.48;6.40;;;;;;;;;;5020482;28;20041;-69
2021/06/16 04:25:11;;;;;;;14.70;6.47;;;;;;;;;;5044499;28;20137;-67
2021/06/16 04:27:37;;;;;;;15.25;6.22;;;;;;;;;;5045028;28;20094;-67
2021/06/16 04:30:04;;;;;;;15.65;5.90;;;;;;;;;;5046567;28;20029;-67
2021/06/16 04:32:30;;;;;;;7.57;5.38;;;;;;;;;;5034199;28;20072;-67
2021/06/16 04:34:55;;;;;;;13.30;6.50;;;;;;;;;;5038791;28;20064;-67
2021/06/16 04:37:21;;;;;;;10.90;6.38;;;;;;;;;;5045326;28;20048;-67
2021/06/16 04:39:47;;;;;;;13.02;5.78;;;;;;;;;;5046421;28;20037;-66
2021/06/16 04:42:13;;;;;;;18.20;5.53;;;;;;;;;;5016704;28;20036;-68
2021/06/16 04:44:38;;;;;;;21.77;5.75;;;;;;;;;;5037787;28;20052;-69
2021/06/16 04:47:04;;;;;;;16.27;5.63;;;;;;;;;;5045385;28;20440;-68
2021/06/16 04:49:31;;;;;;;16.85;5.05;;;;;;;;;;5046603;28;20025;-68
2021/06/16 04:51:57;;;;;;;8.77;4.75;;;;;;;;;;5044599;28;20468;-67
2021/06/16 04:54:22;;;;;;;12.63;5.10;;;;;;;;;;5027430;28;20021;-68
2021/06/16 04:56:48;;;;;;;14.77;5.68;;;;;;;;;;5046131;28;20048;-67
2021/06/16 04:59:13;;;;;;;10.35;5.15;;;;;;;;;;5043712;28;20033;-68
2021/06/16 05:01:39;;;;;;;12.38;4.57;;;;;;;;;;5043372;28;20041;-67
2021/06/16 05:04:05;;;;;;;10.88;5.32;;;;;;;;;;5044613;28;20051;-67
2021/06/16 05:06:31;;;;;;;8.88;5.13;;;;;;;;;;5045301;28;20516;-67
2021/06/16 05:08:56;;;;;;;7.45;4.60;;;;;;;;;;5046177;28;20036;-66
2021/06/16 05:11:22;;;;;;;14.88;5.63;;;;;;;;;;5043292;28;20489;-68
2021/06/16 05:13:48;;;;;;;16.80;4.68;;;;;;;;;;5044808;28;20049;-69
2021/06/16 05:16:14;;;;;;;24.77;4.75;;;;;;;;;;5045592;28;20047;-68
2021/06/16 05:18:45;;;;;;;11.35;4.53;;;;;;;;;;5043995;28;20082;-68
2021/06/16 05:21:11;;;;;;;11.02;5.18;;;;;;;;;;5027874;28;20241;-69
2021/06/16 05:23:37;;;;;;;18.02;4.43;;;;;;;;;;5027986;28;20041;-69
2021/06/16 05:26:02;;;;;;;15.07;4.40;;;;;;;;;;5045954;28;20036;-70
2021/06/16 05:28:28;;;;;;;14.52;4.18;;;;;;;;;;5043893;28;20079;-70
2021/06/16 05:30:57;;;;;;;11.95;4.00;;;;;;;;;;5045060;28;20547;-68
2021/06/16 05:33:22;;;;;;;10.65;4.10;;;;;;;;;;5044227;28;20128;-70
2021/06/16 05:35:48;;;;;;;7.82;4.10;;;;;;;;;;5025817;28;20037;-69
2021/06/16 05:38:14;;;;;;;8.98;3.90;;;;;;;;;;5010545;28;20759;-70
2021/06/16 05:40:40;;;;;;;12.50;4.70;;;;;;;;;;5045516;28;20048;-68
2021/06/16 05:43:06;;;;;;;7.85;4.00;;;;;;;;;;5027608;28;20087;-66
2021/06/16 05:45:31;;;;;;;12.85;4.15;;;;;;;;;;5025782;28;20041;-66
2021/06/16 05:47:57;;;;;;;12.30;4.85;;;;;;;;;;5009006;28;20087;-66
2021/06/16 05:50:25;;;;;;;11.10;4.82;;;;;;;;;;5045033;28;20037;-68
2021/06/16 05:52:51;;;;;;;13.32;4.47;;;;;;;;;;5043868;28;20036;-69
2021/06/16 05:55:16;;;;;;;11.02;5.03;;;;;;;;;;5044074;28;20077;-70
2021/06/16 05:57:42;;;;;;;11.02;4.18;;;;;;;;;;5045168;28;20048;-68
2021/06/16 06:00:09;;;;;;;9.90;4.95;;;;;;;;;;5038208;28;20029;-67
2021/06/16 06:02:35;;;;;;;10.07;3.95;;;;;;;;;;5034368;28;20036;-66
2021/06/16 06:05:01;;;;;;;6.95;4.22;;;;;;;;;;5025034;28;20082;-69
2021/06/16 06:07:27;;;;;;;6.15;3.50;;;;;;;;;;5013719;28;20038;-68
2021/06/16 06:09:53;;;;;;;9.95;3.75;;;;;;;;;;5015120;28;20451;-70
2021/06/16 06:12:18;;;;;;;12.52;3.88;;;;;;;;;;5033724;28;20507;-67
2021/06/16 06:14:44;;;;;;;12.00;6.80;;;;;;;;;;5036565;28;20137;-70
2021/06/16 06:17:10;;;;;;;11.52;4.50;;;;;;;;;;5040653;28;20041;-67
2021/06/16 06:19:35;;;;;;;11.48;4.13;;;;;;;;;;5034226;28;20091;-65
2021/06/16 06:22:01;;;;;;;20.27;4.45;;;;;;;;;;5033827;28;20849;-68
2021/06/16 06:24:27;;;;;;;10.77;4.00;;;;;;;;;;5038569;28;20033;-67
2021/06/16 06:26:52;;;;;;;11.07;3.58;;;;;;;;;;5009675;28;20052;-68
2021/06/16 06:29:18;;;;;;;10.57;3.70;;;;;;;;;;5016213;28;20116;-67
2021/06/16 06:31:44;;;;;;;9.98;3.67;;;;;;;;;;5040449;28;20037;-67
2021/06/16 06:34:09;;;;;;;13.65;4.22;;;;;;;;;;5023048;28;20186;-69
2021/06/16 06:36:35;;;;;;;13.10;3.70;;;;;;;;;;5035574;28;20045;-67
2021/06/16 06:39:01;;;;;;;10.43;4.03;;;;;;;;;;5033536;28;20043;-66
2021/06/16 06:41:26;;;;;;;18.90;3.95;;;;;;;;;;5019405;28;20040;-68
2021/06/16 06:43:52;;;;;;;7.25;3.90;;;;;;;;;;5036305;28;20120;-67
2021/06/16 06:46:18;;;;;;;12.30;3.70;;;;;;;;;;5018405;28;20029;-65
2021/06/16 06:48:44;;;;;;;14.65;3.25;;;;;;;;;;5040162;28;20099;-68
2021/06/16 06:51:09;;;;;;;15.32;3.70;;;;;;;;;;5019299;28;20120;-69
2021/06/16 06:53:35;;;;;;;10.32;3.00;;;;;;;;;;5036379;28;20061;-68
2021/06/16 06:56:01;;;;;;;10.77;3.03;;;;;;;;;;5032582;28;20118;-68
2021/06/16 06:58:28;;;;;;;7.97;2.85;;;;;;;;;;5035883;28;20057;-70
2021/06/16 07:00:54;;;;;;;9.45;3.25;;;;;;;;;;5040757;28;20041;-68
2021/06/16 07:03:20;;;;;;;12.13;3.40;;;;;;;;;;5028445;28;20039;-70
2021/06/16 07:08:33;;;;;;;12.75;3.33;;;;;;;;;;5043539;28;20533;-69
2021/06/16 07:10:58;;;;;;;13.57;3.25;;;;;;;;;;5041935;28;20128;-69
2021/06/16 07:13:24;;;;;;;9.32;3.40;;;;;;;;;;5025979;28;20214;-68
2021/06/16 07:15:53;;;;;;;23.27;4.35;;;;;;;;;;5023163;28;20029;-68
2021/06/16 07:18:18;;;;;;;13.73;4.00;;;;;;;;;;5045496;28;20090;-68
2021/06/16 07:20:44;;;;;;;12.05;3.47;;;;;;;;;;5041006;28;20132;-67
2021/06/16 07:23:10;;;;;;;10.10;3.40;;;;;;;;;;5042791;28;20041;-75
2021/06/16 07:25:35;;;;;;;14.52;3.70;;;;;;;;;;5016648;28;20059;-66
2021/06/16 07:28:01;;;;;;;11.70;3.63;;;;;;;;;;5038120;28;20494;-67
2021/06/16 07:30:27;;;;;;;16.58;4.35;;;;;;;;;;5041908;28;20112;-66
2021/06/16 07:32:56;;;;;;;16.45;3.47;;;;;;;;;;5029753;28;20048;-67
2021/06/16 07:35:22;;;;;;;7.38;3.20;;;;;;;;;;5024211;28;20123;-68
2021/06/16 07:37:48;;;;;;;8.25;3.35;;;;;;;;;;5029682;28;20137;-67
2021/06/16 07:40:15;;;;;;;16.83;4.07;;;;;;;;;;5043518;28;20117;-68
2021/06/16 07:42:41;;;;;;;9.02;3.42;;;;;;;;;;5041406;28;20048;-74
2021/06/16 07:45:07;;;;;;;22.15;3.92;;;;;;;;;;5019643;28;20041;-68
2021/06/16 07:47:33;;;;;;;11.02;3.88;;;;;;;;;;5024659;28;20044;-68
2021/06/16 07:50:00;;;;;;;9.93;3.00;;;;;;;;;;5003916;28;20588;-68
2021/06/16 07:52:27;;;;;;;9.85;3.20;;;;;;;;;;5021580;28;20052;-67
2021/06/16 07:54:53;;;;;;;9.30;2.85;;;;;;;;;;5030794;28;20588;-69
2021/06/16 07:57:19;;;;;;;7.90;3.10;;;;;;;;;;5032854;28;20037;-67
2021/06/16 07:59:44;;;;;;;14.73;3.45;;;;;;;;;;5049946;28;20058;-67
2021/06/16 08:02:10;;;;;;;5.00;2.50;;;;;;;;;;5049271;28;20033;-67
2021/06/16 08:04:41;;;;;;;14.18;3.42;;;;;;;;;;5030907;28;20047;-69
2021/06/16 08:07:11;;;;;;;10.55;3.17;;;;;;;;;;5049705;28;20043;-69
2021/06/16 08:09:37;;;;;;;9.32;3.38;;;;;;;;;;5049588;28;20491;-70
2021/06/16 08:12:03;;;;;;;6.65;2.95;;;;;;;;;;5050209;28;20472;-69
2021/06/16 08:14:29;;;;;;;13.05;2.67;;;;;;;;;;4993177;28;20130;-69
2021/06/16 08:16:55;;;;;;;6.43;2.75;;;;;;;;;;5019108;28;20488;-70
2021/06/16 08:19:20;;;;;;;12.98;3.45;;;;;;;;;;5045080;28;20037;-67
2021/06/16 08:21:46;;;;;;;9.50;2.55;;;;;;;;;;5046056;28;20036;-70
2021/06/16 08:24:12;;;;;;;7.43;2.72;;;;;;;;;;5044968;28;20048;-72
2021/06/16 08:26:38;;;;;;;12.85;2.70;;;;;;;;;;5029416;28;20086;-70
2021/06/16 08:29:04;;;;;;;15.48;3.20;;;;;;;;;;5007566;28;20120;-71
2021/06/16 08:31:32;;;;;;;13.20;3.17;;;;;;;;;;5050859;28;20068;-70
2021/06/16 08:33:58;;;;;;;12.18;3.33;;;;;;;;;;5032528;28;20492;-73
2021/06/16 08:36:27;;;;;;;11.32;2.75;;;;;;;;;;5024887;28;20064;-70
2021/06/16 08:38:53;;;;;;;13.95;2.70;;;;;;;;;;5046157;28;20028;-69
2021/06/16 08:41:21;;;;;;;11.80;2.63;;;;;;;;;;5028174;28;20029;-69
2021/06/16 08:43:49;;;;;;;11.32;3.00;;;;;;;;;;5040497;28;20047;-70
2021/06/16 08:46:15;;;;;;;9.88;3.03;;;;;;;;;;5042614;28;20123;-69
2021/06/16 08:48:42;;;;;;;13.57;2.78;;;;;;;;;;5037721;28;20173;-66
2021/06/16 08:51:08;;;;;;;13.93;3.40;;;;;;;;;;5044761;28;20047;-69
2021/06/16 08:53:34;;;;;;;12.93;3.22;;;;;;;;;;4999175;28;20052;-71
2021/06/16 08:56:03;;;;;;;6.22;2.75;;;;;;;;;;5044323;28;20048;-69
2021/06/16 08:58:29;;;;;;;12.60;2.75;;;;;;;;;;5039952;28;20399;-67
2021/06/16 09:00:54;;;;;;;9.05;3.20;;;;;;;;;;5044175;28;20474;-68
2021/06/16 09:03:20;;;;;;;16.92;3.00;;;;;;;;;;5021882;28;20036;-67
2021/06/16 09:05:48;;;;;;;7.35;2.70;;;;;;;;;;5025391;28;20174;-68
2021/06/16 09:08:15;;;;;;;9.48;3.70;;;;;;;;;;5044479;28;20127;-70
2021/06/16 09:10:44;;;;;;;19.60;3.47;;;;;;;;;;5043812;28;20041;-66
2021/06/16 09:13:11;;;;;;;9.25;3.10;;;;;;;;;;5015346;28;20040;-67
2021/06/16 09:15:38;;;;;;;10.73;3.42;;;;;;;;;;5042622;28;20048;-66
2021/06/16 09:18:13;;;;;;;10.20;2.88;;;;;;;;;;5039978;28;20041;-67
2021/06/16 09:20:40;;;;;;;8.02;2.83;;;;;;;;;;5021453;28;20063;-64
2021/06/16 09:23:21;;;;;;;10.07;2.63;;;;;;;;;;5034919;28;20072;-66
2021/06/16 09:26:22;;;;;;;7.03;2.80;;;;;;;;;;5034180;28;20045;-65
2021/06/16 09:28:51;;;;;;;6.53;2.72;;;;;;;;;;4964769;28;20050;-66
2021/06/16 09:31:18;;;;;;;12.13;2.88;;;;;;;;;;4964584;28;20610;-65
2021/06/16 09:33:43;;;;;;;10.73;2.90;;;;;;;;;;4962302;28;20043;-65
2021/06/16 09:36:19;;;;;;;10.18;3.28;;;;;;;;;;4962864;28;20192;-67
2021/06/16 09:38:47;;;;;;;8.93;3.20;;;;;;;;;;4975058;28;20100;-69
2021/06/16 09:41:18;;;;;;;13.70;3.20;;;;;;;;;;4949535;28;20419;-68
2021/06/16 09:43:45;;;;;;;22.77;2.85;;;;;;;;;;4962928;28;20460;-69
2021/06/16 09:46:12;;;;;;;9.57;2.72;;;;;;;;;;4968665;28;20176;-70
2021/06/16 09:48:39;;;;;;;21.65;3.83;;;;;;;;;;4948111;28;20038;-68
2021/06/16 09:51:14;;;;;;;11.23;3.08;;;;;;;;;;4947225;28;20101;-70
2021/06/16 09:53:49;;;;;;;8.07;2.75;;;;;;;;;;4945799;28;20093;-71
2021/06/16 09:56:15;;;;;;;8.32;3.05;;;;;;;;;;4948426;28;20526;-70
2021/06/16 09:58:41;;;;;;;7.50;2.35;;;;;;;;;;4948557;28;20098;-72
2021/06/16 10:01:07;;;;;;;8.70;3.30;;;;;;;;;;4960976;28;20121;-74
2021/06/16 10:03:33;;;;;;;11.35;2.78;;;;;;;;;;5011127;28;20187;-70
2021/06/16 10:06:11;;;;;;;13.30;2.42;;;;;;;;;;4997788;28;20409;-72
2021/06/16 10:08:43;;;;;;;6.85;3.90;;;;;;;;;;5027909;28;20038;-69
2021/06/16 10:11:20;;;;;;;12.27;2.90;;;;;;;;;;5005779;28;20033;-71
2021/06/16 10:13:49;;;;;;;10.93;2.80;;;;;;;;;;5026502;28;20110;-70
2021/06/16 10:16:15;;;;;;;12.02;2.13;;;;;;;;;;5009973;28;20037;-68
2021/06/16 10:18:44;;;;;;;10.65;3.67;;;;;;;;;;5018505;28;20532;-73
2021/06/16 10:21:11;;;;;;;15.23;3.25;;;;;;;;;;4997623;28;20037;-73
2021/06/16 10:23:37;;;;;;;12.77;3.13;;;;;;;;;;4998350;28;20191;-71
2021/06/16 10:26:05;;;;;;;4.40;2.47;;;;;;;;;;5013414;28;20037;-73
2021/06/16 10:28:36;;;;;;;5.80;2.80;;;;;;;;;;5017261;28;20377;-70
2021/06/16 10:31:02;;;;;;;8.73;2.88;;;;;;;;;;4989446;28;20034;-71
2021/06/16 10:33:32;;;;;;;7.90;2.50;;;;;;;;;;5031695;28;20518;-73
2021/06/16 10:36:08;;;;;;;9.98;2.70;;;;;;;;;;5015870;28;20374;-74
2021/06/16 10:38:35;;;;;;;19.17;2.88;;;;;;;;;;5010388;28;20041;-72
2021/06/16 10:41:01;;;;;;;12.63;2.97;;;;;;;;;;5015139;28;20034;-74
2021/06/16 10:43:30;;;;;;;11.10;2.92;;;;;;;;;;5015576;28;20040;-72
2021/06/16 10:45:57;;;;;;;9.43;2.80;;;;;;;;;;5012990;28;20028;-68
2021/06/16 10:48:43;;;;;;;7.07;2.55;;;;;;;;;;5011497;28;20477;-72
2021/06/16 10:51:09;;;;;;;4.38;2.47;;;;;;;;;;5013084;28;20030;-71
2021/06/16 10:53:55;;;;;;;9.30;2.30;;;;;;;;;;5033610;28;20773;-70
2021/06/16 10:56:39;;;;;;;8.80;2.65;;;;;;;;;;5013031;28;20061;-70
2021/06/16 10:59:05;;;;;;;8.77;2.70;;;;;;;;;;4996837;28;20137;-71
2021/06/16 11:01:44;;;;;;;8.13;2.38;;;;;;;;;;4998465;28;20125;-70
2021/06/16 11:04:10;;;;;;;8.35;2.90;;;;;;;;;;4993114;28;20072;-73
2021/06/16 11:06:36;;;;;;;7.63;2.95;;;;;;;;;;5036273;28;20061;-71
2021/06/16 11:09:16;;;;;;;14.65;3.28;;;;;;;;;;5000686;28;20029;-71
2021/06/16 11:11:44;;;;;;;;;;;;;;;;;;5014672;28;20471;-71
2021/06/16 11:14:09;;;;;;;13.35;2.78;;;;;;;;;;4996504;28;20024;-71
2021/06/16 11:16:45;;;;;;;7.05;2.70;;;;;;;;;;5020757;28;20037;-71
2021/06/16 11:19:23;;;;;;;7.20;2.50;;;;;;;;;;4997819;28;20111;-71
2021/06/16 11:21:57;;;;;;;10.18;2.58;;;;;;;;;;4999413;28;20362;-71
2021/06/16 11:24:43;;;;;;;21.35;2.75;;;;;;;;;;5019531;28;20069;-69
2021/06/16 11:27:09;;;;;;;13.85;2.40;;;;;;;;;;5019101;28;20064;-70
2021/06/16 11:29:53;;;;;;;8.57;2.67;;;;;;;;;;5044553;28;20478;-70
2021/06/16 11:32:19;;;;;;;12.85;2.70;;;;;;;;;;5016552;28;20124;-72
2021/06/16 11:34:51;;;;;;;15.07;6.53;;;;;;;;;;5016701;28;20216;-69
2021/06/16 11:37:46;;;;;;;6.65;2.30;;;;;;;;;;5018649;28;20596;-70
2021/06/16 11:40:17;;;;;;;13.63;2.10;;;;;;;;;;4991982;28;20116;-70
2021/06/16 11:42:43;;;;;;;7.65;2.20;;;;;;;;;;4998083;28;20542;-70
2021/06/16 11:45:09;;;;;;;9.00;2.20;;;;;;;;;;4978396;28;20125;-70
2021/06/16 11:47:35;;;;;;;11.07;2.10;;;;;;;;;;4999077;28;20037;-70
2021/06/16 11:50:01;;;;;;;10.55;1.90;;;;;;;;;;4962365;28;20042;-70
2021/06/16 11:52:29;;;;;;;10.52;1.85;;;;;;;;;;4980048;28;20034;-69
2021/06/16 11:54:57;;;;;;;8.98;1.75;;;;;;;;;;4985184;28;20581;-69
2021/06/16 11:57:26;;;;;;;15.45;4.85;;;;;;;;;;4986981;28;20536;-69
2021/06/16 11:59:52;;;;;;;8.15;2.20;;;;;;;;;;5002318;28;20076;-69
2021/06/16 12:02:28;;;;;;;7.13;1.90;;;;;;;;;;4976421;28;20458;-69
2021/06/16 12:04:54;;;;;;;10.10;1.30;;;;;;;;;;5002109;28;20410;-67
2021/06/16 12:07:20;;;;;;;2.92;1.63;;;;;;;;;;4982362;28;20049;-69
2021/06/16 12:09:46;;;;;;;9.88;1.60;;;;;;;;;;4971196;28;20117;-70
2021/06/16 12:12:13;;;;;;;7.53;1.80;;;;;;;;;;4986915;28;20056;-69
2021/06/16 12:14:39;;;;;;;9.65;1.38;;;;;;;;;;4983781;28;20061;-69
2021/06/16 12:17:05;;;;;;;13.77;1.95;;;;;;;;;;5018234;28;20092;-69
2021/06/16 12:19:38;;;;;;;7.82;1.95;;;;;;;;;;5023270;28;20107;-68
2021/06/16 12:22:06;;;;;;;2.83;1.48;;;;;;;;;;5023423;28;20594;-70
2021/06/16 12:24:52;;;;;;;4.35;1.30;;;;;;;;;;4988695;28;20521;-68
2021/06/16 12:27:21;;;;;;;5.07;1.60;;;;;;;;;;5025162;28;20051;-70
2021/06/16 12:29:49;;;;;;;4.10;1.42;;;;;;;;;;5008022;28;20650;-70
2021/06/16 12:32:25;;;;;;;6.03;1.58;;;;;;;;;;5041425;28;20053;-71
2021/06/16 12:37:51;;;;;;;6.15;1.75;;;;;;;;;;5026839;28;20512;-70
2021/06/16 12:40:18;;;;;;;8.20;1.80;;;;;;;;;;5040456;28;20041;-71
2021/06/16 12:42:45;;;;;;;6.80;1.60;;;;;;;;;;5026818;28;21039;-70
2021/06/16 12:45:26;;;;;;;15.90;2.00;;;;;;;;;;5026805;28;20067;-67
2021/06/16 12:47:52;;;;;;;6.82;1.75;;;;;;;;;;5021458;28;20505;-71
2021/06/16 12:50:25;;;;;;;12.00;1.80;;;;;;;;;;5041655;28;20024;-72
2021/06/16 12:52:51;;;;;;;9.70;1.85;;;;;;;;;;5039714;28;20057;-73
2021/06/16 12:55:16;;;;;;;13.50;1.70;;;;;;;;;;5039208;28;20090;-72
2021/06/16 12:57:46;;;;;;;8.25;1.50;;;;;;;;;;5034327;28;20717;-72
2021/06/16 13:00:13;;;;;;;9.30;1.80;;;;;;;;;;5022267;28;20421;-71
2021/06/16 13:02:40;;;;;;;5.43;1.55;;;;;;;;;;5023633;28;20064;-69
2021/06/16 13:05:07;;;;;;;8.43;2.40;;;;;;;;;;5023971;28;20303;-68
2021/06/16 13:07:40;;;;;;;12.73;1.80;;;;;;;;;;5023762;28;20089;-73
2021/06/16 13:10:07;;;;;;;5.38;1.38;;;;;;;;;;5024234;28;20033;-72
2021/06/16 13:12:33;;;;;;;6.88;1.60;;;;;;;;;;5022209;28;20147;-70
2021/06/16 13:15:02;;;;;;;5.93;1.80;;;;;;;;;;5024321;28;20108;-71
2021/06/16 13:17:39;;;;;;;6.43;1.77;;;;;;;;;;5006136;28;20075;-73
2021/06/16 13:20:05;;;;;;;7.05;2.10;;;;;;;;;;5006152;28;20035;-71
2021/06/16 13:22:38;;;;;;;5.95;1.90;;;;;;;;;;5022403;28;20065;-72
2021/06/16 13:25:05;;;;;;;10.85;1.95;;;;;;;;;;5023015;28;20045;-72
2021/06/16 13:27:45;;;;;;;7.03;1.75;;;;;;;;;;5023239;28;20087;-71
2021/06/16 13:30:12;;;;;;;7.00;1.50;;;;;;;;;;5022322;28;20042;-71
2021/06/16 13:32:38;;;;;;;7.13;1.60;;;;;;;;;;5021982;28;20034;-73
2021/06/16 13:35:04;;;;;;;4.38;1.60;;;;;;;;;;5038623;28;20041;-71
2021/06/16 13:37:30;;;;;;;7.00;2.15;;;;;;;;;;5024106;28;20118;-72
2021/06/16 13:39:56;;;;;;;3.85;1.63;;;;;;;;;;5040002;28;20045;-71
2021/06/16 13:42:21;;;;;;;11.15;1.88;;;;;;;;;;5022497;28;20033;-70
2021/06/16 13:44:47;;;;;;;6.72;1.95;;;;;;;;;;5024651;28;20041;-72
2021/06/16 13:47:12;;;;;;;8.20;1.80;;;;;;;;;;5024428;28;20514;-71
2021/06/16 13:49:38;;;;;;;4.07;1.30;;;;;;;;;;5021915;28;20414;-72
2021/06/16 13:52:04;;;;;;;5.97;1.95;;;;;;;;;;5021242;28;20131;-73
2021/06/16 13:54:31;;;;;;;4.85;1.55;;;;;;;;;;5022145;28;20128;-72
2021/06/16 13:56:56;;;;;;;5.95;1.67;;;;;;;;;;5025146;28;20432;-71
2021/06/16 13:59:22;;;;;;;4.43;1.65;;;;;;;;;;5021566;28;20595;-72
2021/06/16 14:01:47;;;;;;;5.25;1.50;;;;;;;;;;5024254;28;20064;-72
2021/06/16 14:04:14;;;;;;;10.65;1.50;;;;;;;;;;5004561;28;20430;-71
2021/06/16 14:06:40;;;;;;;6.20;1.80;;;;;;;;;;5023514;28;20120;-74
2021/06/16 14:09:07;;;;;;;10.45;1.90;;;;;;;;;;5021558;28;20128;-72
2021/06/16 14:11:34;;;;;;;8.32;1.70;;;;;;;;;;5022648;28;20033;-70
2021/06/16 14:14:01;;;;;;;11.10;1.60;;;;;;;;;;5021405;28;20057;-74
2021/06/16 14:16:27;;;;;;;6.82;1.55;;;;;;;;;;5036354;28;20029;-73
2021/06/16 14:18:53;;;;;;;12.75;1.90;;;;;;;;;;5019789;28;20088;-72
2021/06/16 14:21:18;;;;;;;6.30;2.35;;;;;;;;;;5022470;28;20505;-72
2021/06/16 14:23:44;;;;;;;5.50;1.40;;;;;;;;;;5025049;28;20413;-72
2021/06/16 14:26:12;;;;;;;7.55;1.60;;;;;;;;;;5036508;28;20025;-73
2021/06/16 14:28:37;;;;;;;6.95;2.03;;;;;;;;;;5022065;28;20402;-71
2021/06/16 14:31:03;;;;;;;5.82;1.55;;;;;;;;;;5021033;28;20123;-72
2021/06/16 14:33:29;;;;;;;10.25;1.70;;;;;;;;;;5023538;28;20120;-71
2021/06/16 14:35:54;;;;;;;8.65;1.55;;;;;;;;;;5021438;28;20039;-73
2021/06/16 14:38:20;;;;;;;5.03;1.35;;;;;;;;;;5021967;28;20341;-72
2021/06/16 14:40:48;;;;;;;4.78;1.92;;;;;;;;;;5021272;28;20076;-73